createdAt,value
2019-03-31T00:00:06.953Z,102357.47
2019-03-31T00:02:36.150Z,102360.14
2019-03-31T00:05:05.494Z,102366.13
2019-03-31T00:07:34.651Z,102361.25
2019-03-31T00:10:06.181Z,102365.37
2019-03-31T00:12:35.406Z,102366.66
2019-03-31T00:15:06.841Z,102362.56
2019-03-31T00:17:36.013Z,102366.23
2019-03-31T00:20:06.305Z,102363.64
2019-03-31T00:22:35.551Z,102361.30
2019-03-31T00:25:06.331Z,102362.70
2019-03-31T00:27:35.522Z,102366.12
2019-03-31T00:30:05.797Z,102372.99
2019-03-31T00:32:34.958Z,102367.20
2019-03-31T00:35:04.292Z,102369.56
2019-03-31T00:37:33.443Z,102374.14
2019-03-31T00:40:03.247Z,102378.55
2019-03-31T00:42:32.507Z,102375.72
2019-03-31T00:45:01.673Z,102376.25
2019-03-31T00:47:30.829Z,102377.67
2019-03-31T00:50:00.002Z,102370.20
2019-03-31T00:52:29.167Z,102372.70
2019-03-31T00:54:58.345Z,102375.06
2019-03-31T00:57:27.489Z,102370.23
2019-03-31T00:59:56.669Z,102368.94
2019-03-31T01:02:27.481Z,102367.12
2019-03-31T01:04:56.650Z,102372.80
2019-03-31T01:07:25.926Z,102374.14
2019-03-31T01:09:56.576Z,102370.64
2019-03-31T01:12:25.746Z,102368.33
2019-03-31T01:14:54.904Z,102369.74
2019-03-31T01:17:24.188Z,102365.58
2019-03-31T01:19:57.273Z,102367.47
2019-03-31T01:22:26.532Z,102376.77
2019-03-31T01:24:55.738Z,102378.83
2019-03-31T01:27:25.874Z,102378.66
2019-03-31T01:29:56.671Z,102380.55
2019-03-31T01:32:26.711Z,102384.84
2019-03-31T01:34:55.877Z,102383.19
2019-03-31T01:37:25.888Z,102391.87
2019-03-31T01:39:55.130Z,102390.66
2019-03-31T01:42:24.402Z,102395.44
2019-03-31T01:44:53.760Z,102393.76
2019-03-31T01:47:22.994Z,102391.02
2019-03-31T01:49:52.175Z,102396.20
2019-03-31T01:52:21.367Z,102399.14
2019-03-31T01:54:50.543Z,102400.09
2019-03-31T01:57:19.702Z,102403.98
2019-03-31T01:59:48.922Z,102397.98
2019-03-31T02:02:19.737Z,102395.23
2019-03-31T02:04:48.994Z,102401.71
2019-03-31T02:07:18.152Z,102403.47
2019-03-31T02:09:47.340Z,102402.34
2019-03-31T02:12:16.554Z,102412.92
2019-03-31T02:14:45.705Z,102413.34
2019-03-31T02:17:15.088Z,102416.69
2019-03-31T02:19:44.240Z,102411.89
2019-03-31T02:22:13.413Z,102407.38
2019-03-31T02:24:42.564Z,102405.66
2019-03-31T02:27:11.738Z,102406.62
2019-03-31T02:29:40.899Z,102408.52
2019-03-31T02:32:23.359Z,102399.95
2019-03-31T02:34:40.975Z,102407.20
2019-03-31T02:37:10.154Z,102400.53
2019-03-31T02:39:39.324Z,102394.98
2019-03-31T02:42:08.476Z,102395.30
2019-03-31T02:44:37.644Z,102405.26
2019-03-31T02:47:06.854Z,102406.47
2019-03-31T02:49:36.016Z,102403.27
2019-03-31T02:52:05.192Z,102409.63
2019-03-31T02:54:34.345Z,102415.77
2019-03-31T02:57:04.184Z,102415.09
2019-03-31T02:59:33.380Z,102418.34
2019-03-31T03:02:03.135Z,102421.52
2019-03-31T03:04:33.308Z,102415.94
2019-03-31T03:07:03.616Z,102414.80
2019-03-31T03:09:33.161Z,102406.98
2019-03-31T03:12:02.348Z,102409.25
2019-03-31T03:14:34.915Z,102411.67
2019-03-31T03:17:04.086Z,102412.03
2019-03-31T03:19:33.330Z,102408.52
2019-03-31T03:22:02.500Z,102410.91
2019-03-31T03:24:31.683Z,102415.74
2019-03-31T03:27:00.846Z,102417.96
2019-03-31T03:29:29.999Z,102415.17
2019-03-31T03:31:59.165Z,102416.00
2019-03-31T03:34:28.379Z,102414.31
2019-03-31T03:36:57.629Z,102413.61
2019-03-31T03:39:26.832Z,102421.77
2019-03-31T03:41:56.002Z,102423.09
2019-03-31T03:44:25.175Z,102433.55
2019-03-31T03:46:54.321Z,102432.59
2019-03-31T03:49:23.506Z,102428.67
2019-03-31T03:51:52.667Z,102440.52
2019-03-31T03:54:21.849Z,102434.56
2019-03-31T03:56:51.010Z,102431.77
2019-03-31T03:59:20.177Z,102432.73
2019-03-31T04:01:49.348Z,102432.44
2019-03-31T04:04:18.574Z,102433.23
2019-03-31T04:06:47.764Z,102437.24
2019-03-31T04:09:16.945Z,102440.26
2019-03-31T04:11:46.181Z,102453.17
2019-03-31T04:14:15.343Z,102450.73
2019-03-31T04:16:44.581Z,102448.23
2019-03-31T04:19:14.225Z,102453.93
2019-03-31T04:21:43.538Z,102457.09
2019-03-31T04:24:12.721Z,102459.84
2019-03-31T04:26:41.953Z,102456.09
2019-03-31T04:29:11.099Z,102457.75
2019-03-31T04:31:40.273Z,102456.31
2019-03-31T04:34:09.429Z,102458.41
2019-03-31T04:36:38.772Z,102465.88
2019-03-31T04:39:08.680Z,102467.73
2019-03-31T04:41:37.839Z,102475.66
2019-03-31T04:44:07.022Z,102481.80
2019-03-31T04:46:36.169Z,102487.11
2019-03-31T04:49:05.471Z,102486.48
2019-03-31T04:51:34.617Z,102487.35
2019-03-31T04:54:03.844Z,102493.91
2019-03-31T04:56:33.010Z,102494.47
2019-03-31T04:59:02.191Z,102495.09
2019-03-31T05:01:31.363Z,102495.98
2019-03-31T05:04:04.937Z,102496.47
2019-03-31T05:06:33.035Z,102508.14
2019-03-31T05:09:02.199Z,102512.23
2019-03-31T05:11:31.359Z,102514.83
2019-03-31T05:14:00.533Z,102521.36
2019-03-31T05:16:29.689Z,102524.02
2019-03-31T05:18:58.893Z,102523.27
2019-03-31T05:21:28.162Z,102526.59
2019-03-31T05:23:57.393Z,102520.61
2019-03-31T05:26:26.546Z,102525.44
2019-03-31T05:28:55.721Z,102532.60
2019-03-31T05:31:24.873Z,102537.75
2019-03-31T05:33:54.030Z,102536.76
2019-03-31T05:36:23.375Z,102539.70
2019-03-31T05:38:52.566Z,102548.14
2019-03-31T05:41:21.789Z,102545.17
2019-03-31T05:44:04.806Z,102554.20
2019-03-31T05:46:21.820Z,102557.66
2019-03-31T05:48:50.974Z,102555.11
2019-03-31T05:51:20.170Z,102567.33
2019-03-31T05:53:49.352Z,102566.13
2019-03-31T05:56:18.532Z,102574.78
2019-03-31T05:58:47.680Z,102581.73
2019-03-31T06:01:16.921Z,102577.55
2019-03-31T06:03:46.147Z,102578.59
2019-03-31T06:06:15.352Z,102585.87
2019-03-31T06:08:44.546Z,102586.17
2019-03-31T06:11:13.847Z,102592.37
2019-03-31T06:13:43.028Z,102597.00
2019-03-31T06:16:12.192Z,102599.76
2019-03-31T06:18:41.352Z,102602.66
2019-03-31T06:21:10.556Z,102610.55
2019-03-31T06:23:39.810Z,102616.13
2019-03-31T06:26:09.059Z,102616.31
2019-03-31T06:28:38.249Z,102617.18
2019-03-31T06:31:12.895Z,102624.01
2019-03-31T06:33:42.046Z,102619.20
2019-03-31T06:36:11.219Z,102626.06
2019-03-31T06:38:42.080Z,102627.23
2019-03-31T06:41:11.292Z,102623.27
2019-03-31T06:43:40.450Z,102623.96
2019-03-31T06:46:09.602Z,102625.44
2019-03-31T06:48:38.858Z,102635.72
2019-03-31T06:51:08.035Z,102638.34
2019-03-31T06:53:37.193Z,102641.41
2019-03-31T06:56:06.427Z,102647.37
2019-03-31T06:58:35.732Z,102643.25
2019-03-31T07:01:04.895Z,102654.69
2019-03-31T07:03:34.142Z,102659.50
2019-03-31T07:06:03.410Z,102662.73
2019-03-31T07:08:32.598Z,102663.70
2019-03-31T07:11:01.761Z,102668.92
2019-03-31T07:13:31.019Z,102664.83
2019-03-31T07:16:00.220Z,102675.69
2019-03-31T07:18:29.426Z,102678.64
2019-03-31T07:20:58.598Z,102689.80
2019-03-31T07:23:28.066Z,102683.30
2019-03-31T07:25:57.374Z,102700.78
2019-03-31T07:28:26.531Z,102686.48
2019-03-31T07:30:55.688Z,102687.19
2019-03-31T07:33:26.483Z,102685.73
2019-03-31T07:35:55.937Z,102688.13
2019-03-31T07:38:38.702Z,102689.05
2019-03-31T07:41:12.934Z,102684.03
2019-03-31T07:43:39.841Z,102693.43
2019-03-31T07:46:08.988Z,102689.36
2019-03-31T07:48:38.169Z,102679.19
2019-03-31T07:51:07.399Z,102683.19
2019-03-31T07:53:36.665Z,102678.69
2019-03-31T07:56:05.880Z,102680.38
2019-03-31T07:58:35.033Z,102682.14
2019-03-31T08:01:10.887Z,102691.75
2019-03-31T08:03:40.049Z,102683.02
2019-03-31T08:06:09.417Z,102677.79
2019-03-31T08:08:41.327Z,102677.79
2019-03-31T08:11:23.361Z,102679.53
2019-03-31T08:13:51.228Z,102684.80
2019-03-31T08:16:20.402Z,102681.80
2019-03-31T08:18:49.705Z,102681.49
2019-03-31T08:21:28.217Z,102678.91
2019-03-31T08:23:57.103Z,102687.63
2019-03-31T08:26:26.305Z,102688.92
2019-03-31T08:28:58.511Z,102687.42
2019-03-31T08:31:26.395Z,102688.91
2019-03-31T08:33:55.552Z,102697.16
2019-03-31T08:36:26.381Z,102711.75
2019-03-31T08:38:55.618Z,102720.92
2019-03-31T08:41:24.796Z,102717.94
2019-03-31T08:43:53.959Z,102715.33
2019-03-31T08:46:23.394Z,102728.14
2019-03-31T08:48:52.598Z,102717.70
2019-03-31T08:51:21.785Z,102724.35
2019-03-31T08:53:50.942Z,102713.95
2019-03-31T08:56:21.751Z,102722.30
2019-03-31T08:58:50.948Z,102725.14
2019-03-31T09:01:21.804Z,102721.16
2019-03-31T09:03:51.018Z,102726.88
2019-03-31T09:06:20.183Z,102728.17
2019-03-31T09:08:49.365Z,102727.00
2019-03-31T09:11:18.634Z,102741.59
2019-03-31T09:13:47.788Z,102730.95
2019-03-31T09:16:16.954Z,102731.78
2019-03-31T09:18:46.118Z,102732.47
2019-03-31T09:21:17.377Z,102732.46
2019-03-31T09:23:46.262Z,102738.73
2019-03-31T09:26:15.471Z,102736.01
2019-03-31T09:28:44.698Z,102739.80
2019-03-31T09:31:14.146Z,102728.45
2019-03-31T09:33:43.331Z,102736.28
2019-03-31T09:36:16.356Z,102735.20
2019-03-31T09:38:43.772Z,102746.34
2019-03-31T09:41:12.916Z,102740.31
2019-03-31T09:43:42.095Z,102743.39
2019-03-31T09:46:11.251Z,102747.48
2019-03-31T09:48:40.418Z,102742.34
2019-03-31T09:51:09.596Z,102749.97
2019-03-31T09:53:38.752Z,102743.45
2019-03-31T09:56:08.282Z,102744.65
2019-03-31T09:58:37.486Z,102749.11
2019-03-31T10:01:08.237Z,102738.19
2019-03-31T10:03:37.512Z,102749.91
2019-03-31T10:06:10.968Z,102748.02
2019-03-31T10:08:37.592Z,102746.16
2019-03-31T10:11:06.935Z,102745.93
2019-03-31T10:13:36.096Z,102747.63
2019-03-31T10:16:05.261Z,102745.31
2019-03-31T10:18:34.501Z,102748.94
2019-03-31T10:21:03.688Z,102750.05
2019-03-31T10:23:32.860Z,102755.58
2019-03-31T10:26:02.025Z,102767.98
2019-03-31T10:28:31.192Z,102755.59
2019-03-31T10:31:00.375Z,102763.03
2019-03-31T10:33:29.533Z,102755.87
2019-03-31T10:35:58.710Z,102763.80
2019-03-31T10:38:27.896Z,102770.27
2019-03-31T10:40:57.072Z,102772.10
2019-03-31T10:43:26.280Z,102766.02
2019-03-31T10:45:57.084Z,102762.54
2019-03-31T10:48:26.285Z,102766.52
2019-03-31T10:50:55.440Z,102763.64
2019-03-31T10:53:24.645Z,102758.75
2019-03-31T10:55:54.244Z,102761.36
2019-03-31T10:58:23.517Z,102759.22
2019-03-31T11:00:54.244Z,102746.82
2019-03-31T11:03:25.048Z,102753.22
2019-03-31T11:05:54.435Z,102758.98
2019-03-31T11:08:23.598Z,102759.20
2019-03-31T11:10:52.768Z,102750.72
2019-03-31T11:13:21.938Z,102760.38
2019-03-31T11:15:51.130Z,102763.09
2019-03-31T11:18:24.912Z,102753.55
2019-03-31T11:20:54.178Z,102752.22
2019-03-31T11:23:25.000Z,102764.70
2019-03-31T11:25:54.199Z,102759.66
2019-03-31T11:28:23.592Z,102762.98
2019-03-31T11:31:06.189Z,102764.41
2019-03-31T11:33:31.214Z,102752.52
2019-03-31T11:36:00.564Z,102756.81
2019-03-31T11:38:30.388Z,102761.17
2019-03-31T11:41:01.196Z,102760.09
2019-03-31T11:43:30.515Z,102767.16
2019-03-31T11:45:59.680Z,102764.74
2019-03-31T11:48:28.837Z,102762.86
2019-03-31T11:51:00.426Z,102755.70
2019-03-31T11:53:29.930Z,102759.44
2019-03-31T11:55:59.569Z,102774.69
2019-03-31T11:58:32.029Z,102760.07
2019-03-31T12:00:59.648Z,102762.53
2019-03-31T12:03:30.951Z,102767.95
2019-03-31T12:05:59.785Z,102760.85
2019-03-31T12:08:29.051Z,102763.02
2019-03-31T12:10:58.364Z,102755.44
2019-03-31T12:13:27.541Z,102752.25
2019-03-31T12:15:56.740Z,102755.84
2019-03-31T12:18:25.896Z,102741.64
2019-03-31T12:20:55.054Z,102747.99
2019-03-31T12:23:24.230Z,102734.11
2019-03-31T12:25:53.401Z,102741.64
2019-03-31T12:28:22.649Z,102743.55
2019-03-31T12:30:51.920Z,102734.92
2019-03-31T12:33:22.793Z,102746.16
2019-03-31T12:35:58.978Z,102742.88
2019-03-31T12:38:28.156Z,102733.69
2019-03-31T12:40:57.322Z,102729.87
2019-03-31T12:43:26.493Z,102725.34
2019-03-31T12:45:55.741Z,102730.44
2019-03-31T12:48:24.896Z,102734.58
2019-03-31T12:50:54.095Z,102725.73
2019-03-31T12:53:23.245Z,102730.84
2019-03-31T12:55:59.870Z,102731.89
2019-03-31T12:58:23.399Z,102725.84
2019-03-31T13:00:53.137Z,102721.05
2019-03-31T13:03:22.320Z,102723.30
2019-03-31T13:06:10.984Z,102715.35
2019-03-31T13:08:40.166Z,102718.88
2019-03-31T13:11:09.321Z,102710.32
2019-03-31T13:13:38.485Z,102698.42
2019-03-31T13:16:09.357Z,102709.76
2019-03-31T13:18:38.705Z,102703.06
2019-03-31T13:21:08.404Z,102692.75
2019-03-31T13:23:37.593Z,102700.58
2019-03-31T13:26:06.900Z,102695.47
2019-03-31T13:28:36.151Z,102698.82
2019-03-31T13:31:05.394Z,102696.09
2019-03-31T13:33:34.943Z,102696.39
2019-03-31T13:36:04.112Z,102681.83
2019-03-31T13:38:33.296Z,102683.47
2019-03-31T13:41:04.135Z,102688.59
2019-03-31T13:43:33.367Z,102684.94
2019-03-31T13:46:02.529Z,102682.18
2019-03-31T13:48:31.734Z,102681.91
2019-03-31T13:51:00.957Z,102686.27
2019-03-31T13:53:30.136Z,102684.58
2019-03-31T13:55:59.298Z,102676.29
2019-03-31T13:58:28.985Z,102677.50
2019-03-31T14:00:58.447Z,102676.86
2019-03-31T14:03:27.726Z,102675.20
2019-03-31T14:05:56.919Z,102673.63
2019-03-31T14:08:26.388Z,102671.83
2019-03-31T14:10:55.652Z,102677.11
2019-03-31T14:13:24.825Z,102658.04
2019-03-31T14:15:54.024Z,102650.61
2019-03-31T14:18:23.397Z,102663.80
2019-03-31T14:20:52.560Z,102655.20
2019-03-31T14:23:21.745Z,102657.30
2019-03-31T14:25:50.911Z,102652.91
2019-03-31T14:28:20.172Z,102656.79
2019-03-31T14:30:49.353Z,102653.86
2019-03-31T14:33:18.598Z,102656.72
2019-03-31T14:35:47.781Z,102650.03
2019-03-31T14:38:19.396Z,102646.27
2019-03-31T14:40:48.604Z,102640.66
2019-03-31T14:43:17.857Z,102642.89
2019-03-31T14:45:47.062Z,102634.73
2019-03-31T14:48:16.343Z,102639.58
2019-03-31T14:50:45.517Z,102640.19
2019-03-31T14:53:14.882Z,102636.77
2019-03-31T14:55:44.062Z,102634.52
2019-03-31T14:58:13.255Z,102650.82
2019-03-31T15:00:42.439Z,102639.50
2019-03-31T15:03:11.706Z,102636.16
2019-03-31T15:05:40.928Z,102636.91
2019-03-31T15:08:10.083Z,102633.78
2019-03-31T15:10:39.334Z,102639.13
2019-03-31T15:13:08.493Z,102626.18
2019-03-31T15:15:37.699Z,102629.50
2019-03-31T15:18:06.934Z,102631.11
2019-03-31T15:20:36.163Z,102623.66
2019-03-31T15:23:05.794Z,102629.25
2019-03-31T15:25:35.104Z,102629.55
2019-03-31T15:28:04.343Z,102623.81
2019-03-31T15:30:33.520Z,102629.64
2019-03-31T15:33:02.684Z,102628.30
2019-03-31T15:35:31.851Z,102630.40
2019-03-31T15:38:01.295Z,102630.02
2019-03-31T15:40:30.453Z,102634.90
2019-03-31T15:42:59.678Z,102632.19
2019-03-31T15:45:28.855Z,102628.12
2019-03-31T15:47:58.032Z,102627.84
2019-03-31T15:50:27.283Z,102627.34
2019-03-31T15:52:56.451Z,102626.30
2019-03-31T15:55:25.606Z,102631.06
2019-03-31T15:57:54.787Z,102631.41
2019-03-31T16:00:23.970Z,102628.66
2019-03-31T16:02:53.130Z,102620.19
2019-03-31T16:05:22.380Z,102632.09
2019-03-31T16:07:51.558Z,102619.81
2019-03-31T16:10:20.724Z,102624.20
2019-03-31T16:12:49.879Z,102627.34
2019-03-31T16:15:19.139Z,102633.53
2019-03-31T16:17:48.380Z,102633.20
2019-03-31T16:20:20.632Z,102633.78
2019-03-31T16:22:49.784Z,102629.14
2019-03-31T16:25:26.842Z,102631.44
2019-03-31T16:27:56.073Z,102626.41
2019-03-31T16:30:25.238Z,102630.85
2019-03-31T16:32:54.404Z,102625.11
2019-03-31T16:35:23.571Z,102624.36
2019-03-31T16:37:52.752Z,102625.11
2019-03-31T16:40:21.992Z,102623.13
2019-03-31T16:42:51.268Z,102621.76
2019-03-31T16:45:20.520Z,102623.67
2019-03-31T16:47:49.681Z,102625.78
2019-03-31T16:50:18.988Z,102632.28
2019-03-31T16:52:48.223Z,102622.94
2019-03-31T16:55:17.529Z,102615.88
2019-03-31T16:57:46.677Z,102624.19
2019-03-31T17:00:17.939Z,102631.08
2019-03-31T17:02:47.106Z,102630.23
2019-03-31T17:05:21.989Z,102625.95
2019-03-31T17:07:47.188Z,102628.64
2019-03-31T17:10:16.489Z,102629.17
2019-03-31T17:12:45.662Z,102630.78
2019-03-31T18:10:53.543Z,102569.09
2019-03-31T18:13:22.784Z,102571.19
2019-03-31T18:15:52.080Z,102574.99
2019-03-31T18:18:21.279Z,102576.30
2019-03-31T18:20:50.500Z,102574.89
2019-03-31T18:23:19.838Z,102574.62
2019-03-31T18:25:52.002Z,102582.06
2019-03-31T18:28:21.306Z,102584.97
2019-03-31T18:30:55.493Z,102590.55
2019-03-31T18:33:24.775Z,102584.95
2019-03-31T18:35:54.003Z,102590.03
2019-03-31T18:38:23.297Z,102594.09
2019-03-31T18:40:52.525Z,102599.83
2019-03-31T18:43:21.740Z,102599.59
2019-03-31T18:45:50.957Z,102604.36
2019-03-31T18:48:20.124Z,102602.95
2019-03-31T18:50:49.426Z,102614.88
2019-03-31T18:53:23.346Z,102610.34
2019-03-31T18:56:10.553Z,102612.73
2019-03-31T18:58:43.817Z,102617.88
2019-03-31T19:01:14.718Z,102617.86
2019-03-31T19:03:48.530Z,102621.18
2019-03-31T19:06:28.306Z,102622.67
2019-03-31T19:09:07.887Z,102626.91
2019-03-31T19:11:54.651Z,102630.34
2019-03-31T19:14:28.560Z,102628.41
2019-03-31T19:17:15.626Z,102628.75
2019-03-31T19:20:02.823Z,102635.90
2019-03-31T19:22:33.636Z,102637.48
2019-03-31T19:25:07.235Z,102635.97
2019-03-31T19:27:38.069Z,102645.80
2019-03-31T19:30:09.117Z,102646.01
2019-03-31T19:32:42.998Z,102644.02
2019-03-31T19:35:19.922Z,102649.17
2019-03-31T19:37:56.310Z,102643.85
2019-03-31T19:40:43.514Z,102647.77
2019-03-31T19:43:17.026Z,102658.48
2019-03-31T19:46:06.128Z,102659.52
2019-03-31T19:48:42.937Z,102661.31
2019-03-31T19:51:22.914Z,102663.09
2019-03-31T19:54:09.581Z,102664.23
2019-03-31T19:56:56.807Z,102671.02
2019-03-31T19:59:27.642Z,102670.13
2019-03-31T20:02:04.662Z,102670.98
2019-03-31T20:04:51.566Z,102668.61
2019-03-31T20:07:38.253Z,102677.00
2019-03-31T20:10:17.933Z,102673.39
2019-03-31T20:12:57.793Z,102680.31
2019-03-31T20:15:28.606Z,102677.25
2019-03-31T20:18:11.103Z,102678.67
2019-03-31T20:20:41.968Z,102680.77
2019-03-31T20:23:29.126Z,102680.92
2019-03-31T20:26:03.711Z,102679.17
2019-03-31T20:28:35.116Z,102683.50
2019-03-31T20:31:08.783Z,102685.20
2019-03-31T20:33:48.375Z,102683.83
2019-03-31T20:36:19.192Z,102690.02
2019-03-31T20:39:08.093Z,102691.95
2019-03-31T20:41:38.976Z,102694.62
2019-03-31T20:44:08.344Z,102703.45
2019-03-31T20:46:37.477Z,102701.83
2019-03-31T20:49:06.718Z,102708.52
2019-03-31T20:51:35.899Z,102706.80
2019-03-31T20:54:05.117Z,102704.63
2019-03-31T20:56:34.361Z,102705.58
2019-03-31T20:59:03.575Z,102709.81
2019-03-31T21:01:32.768Z,102704.52
2019-03-31T21:04:02.077Z,102705.86
2019-03-31T21:06:31.286Z,102705.22
2019-03-31T21:09:00.570Z,102708.48
2019-03-31T21:11:29.738Z,102703.78
2019-03-31T21:13:58.978Z,102711.81
2019-03-31T21:16:28.105Z,102716.69
2019-03-31T21:18:57.399Z,102719.02
2019-03-31T21:21:26.660Z,102719.34
2019-03-31T21:23:55.808Z,102720.80
2019-03-31T21:26:29.543Z,102724.75
2019-03-31T21:28:58.766Z,102726.25
2019-03-31T21:31:27.919Z,102722.86
2019-03-31T21:33:57.101Z,102729.06
2019-03-31T21:36:26.289Z,102728.94
2019-03-31T21:38:55.508Z,102732.78
2019-03-31T21:41:24.683Z,102733.43
2019-03-31T21:43:53.874Z,102730.36
2019-03-31T21:46:23.074Z,102728.41
2019-03-31T21:48:52.309Z,102734.08
2019-03-31T21:51:21.638Z,102734.05
2019-03-31T21:53:50.835Z,102736.60
2019-03-31T21:56:20.093Z,102739.80
2019-03-31T21:58:49.252Z,102737.70
2019-03-31T22:01:18.456Z,102741.59
2019-03-31T22:03:47.661Z,102737.02
2019-03-31T22:06:16.810Z,102739.22
2019-03-31T22:08:46.006Z,102743.30
2019-03-31T22:11:15.309Z,102736.38
2019-03-31T22:13:44.485Z,102738.11
2019-03-31T22:16:13.696Z,102737.23
2019-03-31T22:18:42.871Z,102738.48
2019-03-31T22:21:12.098Z,102736.47
2019-03-31T22:23:41.259Z,102743.33
2019-03-31T22:26:10.414Z,102737.89
2019-03-31T22:28:39.692Z,102733.98
2019-03-31T22:31:08.912Z,102738.97
2019-03-31T22:33:38.070Z,102737.69
2019-03-31T22:36:22.149Z,102732.48
2019-03-31T22:38:52.715Z,102741.25
2019-03-31T22:41:21.419Z,102736.89
2019-03-31T22:43:50.703Z,102736.88
2019-03-31T22:46:19.933Z,102730.39
2019-03-31T22:48:49.145Z,102746.80
2019-03-31T22:51:18.374Z,102729.87
2019-03-31T22:53:47.536Z,102743.28
2019-03-31T22:56:16.736Z,102740.39
2019-03-31T22:58:45.926Z,102742.20
2019-03-31T23:01:15.054Z,102742.16
2019-03-31T23:03:44.240Z,102747.33
2019-03-31T23:06:13.568Z,102745.98
2019-03-31T23:08:43.000Z,102744.68
2019-03-31T23:11:12.124Z,102739.73
2019-03-31T23:13:41.335Z,102741.17
2019-03-31T23:16:10.704Z,102740.91
2019-03-31T23:18:41.554Z,102746.70
2019-03-31T23:21:10.703Z,102746.00
2019-03-31T23:23:39.924Z,102739.13
2019-03-31T23:26:09.115Z,102738.81
2019-03-31T23:28:40.072Z,102740.63
2019-03-31T23:31:09.296Z,102742.27
2019-03-31T23:33:38.425Z,102742.83
2019-03-31T23:36:07.611Z,102738.07
2019-03-31T23:38:36.803Z,102740.80
2019-03-31T23:41:05.971Z,102734.80
2019-03-31T23:43:35.159Z,102735.65
2019-03-31T23:46:04.402Z,102728.33
2019-03-31T23:48:33.572Z,102730.59
2019-03-31T23:51:02.786Z,102730.16
2019-03-31T23:53:31.942Z,102729.34
2019-03-31T23:56:01.133Z,102723.33
2019-03-31T23:58:30.352Z,102719.36
